Time;durP1;ratioP1;P1;durP2;ratioP2;P2;SDS_P1;SDS_P2;PMS_P1;PMS_P2;Temp;Humidity;BMP_temperature;BMP_pressure;BME280_temperature;BME280_humidity;BME280_pressure;Samples;Min_cycle;Max_cycle;Signal;HPM_P1;HPM_P2
2023/03/24 00:00:10;;;;;;;8.02;3.97;;;;;;;13.76;79.51;95519.91;5063804;28;20227;-66
2023/03/24 00:02:40;;;;;;;6.32;3.90;;;;;;;13.67;79.69;95526.47;5063415;28;20232;-68
2023/03/24 00:05:07;;;;;;;5.90;3.63;;;;;;;13.55;80.02;95517.59;5062846;28;20228;-67
2023/03/24 00:07:37;;;;;;;7.18;3.67;;;;;;;13.64;79.49;95519.78;5063079;28;20204;-67
2023/03/24 00:10:05;;;;;;;8.05;4.30;;;;;;;13.64;79.79;95516.34;5063699;28;20393;-67
2023/03/24 00:12:31;;;;;;;8.45;3.45;;;;;;;13.59;80.18;95518.81;5063482;28;20332;-65
2023/03/24 00:15:01;;;;;;;7.93;4.25;;;;;;;13.57;80.56;95510.28;5062182;28;20201;-68
2023/03/24 00:17:29;;;;;;;8.02;3.85;;;;;;;13.61;80.44;95512.28;5063177;28;20676;-68
2023/03/24 00:19:56;;;;;;;5.85;3.55;;;;;;;13.54;80.49;95510.69;5063277;28;20209;-68
2023/03/24 00:22:27;;;;;;;7.10;4.03;;;;;;;13.49;81.65;95515.78;5063018;28;20323;-68
2023/03/24 00:24:53;;;;;;;7.38;4.05;;;;;;;13.39;81.86;95513.63;5062331;28;20224;-68
2023/03/24 00:27:20;;;;;;;7.18;4.07;;;;;;;13.37;81.55;95511.41;5063395;28;20205;-68
2023/03/24 00:29:46;;;;;;;6.60;3.45;;;;;;;13.47;81.46;95515.22;5062725;28;20201;-68
2023/03/24 00:32:13;;;;;;;10.00;3.97;;;;;;;13.43;80.26;95514.81;5062674;28;20236;-68
2023/03/24 00:34:42;;;;;;;9.10;4.00;;;;;;;13.51;80.56;95525.16;5062287;28;20651;-68
2023/03/24 00:37:09;;;;;;;7.22;3.97;;;;;;;13.46;80.74;95524.97;5063058;28;20215;-68
2023/03/24 00:39:35;;;;;;;7.15;4.18;;;;;;;13.38;82.43;95531.53;5062821;28;20589;-68
2023/03/24 00:42:02;;;;;;;9.68;3.75;;;;;;;13.34;83.10;95528.50;5062602;28;20232;-68
2023/03/24 00:44:29;;;;;;;7.72;3.78;;;;;;;13.39;83.45;95539.28;5062091;28;20220;-68
2023/03/24 00:46:55;;;;;;;8.60;3.85;;;;;;;13.37;83.71;95548.47;5062740;28;20238;-68
2023/03/24 00:49:40;;;;;;;9.73;5.65;;;;;;;13.37;83.26;95556.41;5063081;28;20205;-68
2023/03/24 00:52:09;;;;;;;9.32;3.95;;;;;;;13.42;84.17;95555.53;5062582;28;20248;-68
2023/03/24 00:54:36;;;;;;;9.13;4.28;;;;;;;13.33;85.66;95553.34;5061773;28;20690;-68
2023/03/24 00:57:04;;;;;;;10.65;4.50;;;;;;;13.33;87.57;95534.00;5062678;28;20203;-68
2023/03/24 00:59:30;;;;;;;8.50;4.18;;;;;;;13.28;87.72;95531.19;5062981;28;20574;-68
2023/03/24 01:01:57;;;;;;;8.13;3.75;;;;;;;13.28;88.02;95537.28;5061995;28;20220;-68
2023/03/24 01:04:25;;;;;;;7.82;4.13;;;;;;;13.11;89.31;95533.50;5061484;28;20204;-68
2023/03/24 01:06:53;;;;;;;7.00;3.72;;;;;;;13.15;90.70;95524.13;5062567;28;20208;-68
2023/03/24 01:09:21;;;;;;;10.13;3.75;;;;;;;13.21;90.86;95525.09;5062790;28;20211;-68
2023/03/24 01:11:48;;;;;;;7.60;4.43;;;;;;;13.03;91.75;95524.97;5062343;28;20640;-68
2023/03/24 01:14:15;;;;;;;9.80;4.50;;;;;;;13.06;92.31;95525.38;5061689;28;20220;-68
2023/03/24 01:16:42;;;;;;;8.35;4.70;;;;;;;13.03;93.29;95517.03;5062629;28;20211;-68
2023/03/24 01:19:09;;;;;;;9.05;4.32;;;;;;;13.05;93.84;95521.09;5062508;28;20199;-68
2023/03/24 01:21:36;;;;;;;8.75;4.13;;;;;;;12.93;95.21;95516.66;5062132;28;20225;-68
2023/03/24 01:24:03;;;;;;;6.53;4.18;;;;;;;12.91;97.54;95514.22;5061950;28;20212;-68
2023/03/24 01:26:31;;;;;;;6.68;4.03;;;;;;;13.01;97.25;95503.22;5062350;28;20227;-68
2023/03/24 01:28:58;;;;;;;9.20;4.15;;;;;;;12.88;98.15;95497.97;5062341;28;20197;-68
2023/03/24 01:31:24;;;;;;;7.45;4.10;;;;;;;12.83;99.75;95500.41;5062508;28;20228;-68
2023/03/24 01:33:51;;;;;;;8.98;4.43;;;;;;;12.76;100.00;95504.09;5061424;28;20204;-68
2023/03/24 01:36:17;;;;;;;9.35;3.92;;;;;;;12.74;100.00;95499.00;5062071;28;20204;-68
2023/03/24 01:38:44;;;;;;;7.28;3.67;;;;;;;12.73;100.00;95499.19;5062363;28;20231;-68
2023/03/24 01:41:10;;;;;;;6.25;4.15;;;;;;;12.63;100.00;95486.41;5061793;28;20672;-68
2023/03/24 01:43:38;;;;;;;9.50;3.77;;;;;;;12.44;100.00;95474.06;5061512;28;20209;-65
2023/03/24 01:46:15;;;;;;;5.25;3.58;;;;;;;12.47;100.00;95464.91;5066368;28;20228;-68
2023/03/24 01:48:45;;;;;;;7.68;3.67;;;;;;;12.39;100.00;95462.50;5066082;28;20207;-69
2023/03/24 01:51:16;;;;;;;6.32;3.65;;;;;;;12.52;100.00;95460.63;5066538;28;20231;-68
2023/03/24 01:53:47;;;;;;;8.68;3.80;;;;;;;12.54;100.00;95450.66;5065864;28;20208;-68
2023/03/24 01:56:14;;;;;;;7.25;3.90;;;;;;;12.47;100.00;95457.78;5066375;28;20205;-69
2023/03/24 01:58:50;;;;;;;5.90;3.80;;;;;;;12.56;100.00;95440.69;5066053;28;20208;-68
2023/03/24 02:01:17;;;;;;;7.47;4.03;;;;;;;12.48;100.00;95440.91;5065427;28;20228;-69
2023/03/24 02:03:45;;;;;;;9.77;3.88;;;;;;;12.53;100.00;95433.19;5064830;28;20197;-69
2023/03/24 02:06:14;;;;;;;7.03;3.90;;;;;;;12.61;99.14;95435.59;5065489;28;20220;-68
2023/03/24 02:08:47;;;;;;;4.75;3.08;;;;;;;12.75;96.23;95423.94;5065442;28;20204;-68
2023/03/24 02:11:13;;;;;;;6.07;3.10;;;;;;;12.78;94.91;95427.00;5065597;28;20224;-68
2023/03/24 02:13:40;;;;;;;5.43;2.95;;;;;;;12.82;94.50;95420.25;5064969;28;20219;-68
2023/03/24 02:16:29;;;;;;;6.90;3.23;;;;;;;12.99;93.37;95410.06;5065314;28;20420;-68
2023/03/24 02:19:14;;;;;;;5.03;2.88;;;;;;;13.09;91.90;95413.06;5065670;28;20201;-68
2023/03/24 02:22:16;;;;;;;5.27;3.23;;;;;;;13.20;91.07;95412.38;5065574;28;20231;-68
2023/03/24 02:25:25;;;;;;;7.03;3.33;;;;;;;13.32;89.21;95400.91;5064678;28;20215;-68
2023/03/24 02:28:10;;;;;;;5.72;3.47;;;;;;;13.27;90.46;95400.72;5065376;28;20200;-68
2023/03/24 02:30:53;;;;;;;6.22;3.65;;;;;;;13.28;88.58;95391.78;5065393;28;20293;-67
2023/03/24 02:33:51;;;;;;;5.40;3.30;;;;;;;13.38;88.89;95388.63;5065160;28;20783;-68
2023/03/24 02:36:50;;;;;;;5.15;3.10;;;;;;;13.39;87.02;95391.91;5064968;28;20695;-68
2023/03/24 02:39:40;;;;;;;7.60;3.47;;;;;;;13.28;87.91;95380.38;5065204;28;20220;-68
2023/03/24 02:42:18;;;;;;;7.13;3.30;;;;;;;13.32;87.46;95390.31;5065298;28;20905;-68
2023/03/24 02:44:55;;;;;;;5.45;3.10;;;;;;;13.33;86.84;95385.81;5063921;28;20204;-68
2023/03/24 02:47:28;;;;;;;4.63;3.30;;;;;;;13.29;88.59;95390.75;5065262;28;20208;-68
2023/03/24 02:50:02;;;;;;;5.80;3.38;;;;;;;13.26;88.29;95390.34;5064996;28;20257;-68
2023/03/24 02:52:36;;;;;;;5.82;3.40;;;;;;;13.22;88.72;95384.66;5064946;28;20242;-67
2023/03/24 02:55:10;;;;;;;6.93;3.25;;;;;;;13.22;88.85;95384.66;5063307;28;20205;-68
2023/03/24 02:57:42;;;;;;;7.07;3.53;;;;;;;13.22;88.42;95379.38;5065124;28;20218;-69
2023/03/24 03:00:15;;;;;;;9.75;3.92;;;;;;;13.17;88.87;95378.41;5064985;28;20209;-69
2023/03/24 03:02:46;;;;;;;4.43;2.80;;;;;;;13.15;89.26;95383.09;5064729;28;20239;-67
2023/03/24 03:05:17;;;;;;;6.07;3.58;;;;;;;13.17;88.52;95375.75;5063927;28;20244;-66
2023/03/24 03:07:46;;;;;;;4.90;2.83;;;;;;;13.02;89.15;95372.59;5064643;28;20265;-68
2023/03/24 03:10:16;;;;;;;4.82;3.10;;;;;;;13.17;88.32;95368.63;5064917;28;20242;-70
2023/03/24 03:12:46;;;;;;;6.85;3.72;;;;;;;13.20;87.51;95362.09;5064199;28;20228;-67
2023/03/24 03:15:35;;;;;;;5.03;3.00;;;;;;;13.28;87.13;95373.25;5063924;28;20205;-67
2023/03/24 03:18:08;;;;;;;5.75;3.30;;;;;;;13.26;87.69;95370.00;5064254;28;20324;-66
2023/03/24 03:20:41;;;;;;;12.65;3.75;;;;;;;13.22;88.08;95368.00;5064721;28;20207;-66
2023/03/24 03:23:12;;;;;;;13.00;3.55;;;;;;;13.10;90.03;95375.00;5064392;28;20217;-66
2023/03/24 03:25:45;;;;;;;6.85;3.40;;;;;;;13.16;88.18;95371.50;5063134;28;20263;-65
2023/03/24 03:28:16;;;;;;;6.72;3.72;;;;;;;13.07;88.49;95364.84;5064165;28;20208;-69
2023/03/24 03:30:46;;;;;;;5.82;3.53;;;;;;;13.12;88.71;95359.72;5064274;28;20205;-66
2023/03/24 03:33:23;;;;;;;4.97;3.43;;;;;;;13.15;89.10;95364.56;5064344;28;20689;-66
2023/03/24 03:35:53;;;;;;;5.53;3.30;;;;;;;13.14;88.54;95365.63;5063508;28;20287;-69
2023/03/24 03:38:25;;;;;;;7.03;3.45;;;;;;;13.08;88.77;95361.16;5064543;28;20201;-69
2023/03/24 03:40:55;;;;;;;10.43;3.60;;;;;;;13.01;90.09;95363.88;5064669;28;20220;-69
2023/03/24 03:43:22;;;;;;;5.80;3.08;;;;;;;12.92;89.58;95366.97;5064915;28;20212;-69
2023/03/24 03:45:49;;;;;;;5.03;3.23;;;;;;;12.94;88.63;95375.50;5063149;28;20243;-69
2023/03/24 03:48:16;;;;;;;6.95;3.30;;;;;;;12.92;89.06;95372.25;5063903;28;20218;-67
2023/03/24 03:50:43;;;;;;;6.13;3.20;;;;;;;12.94;88.73;95373.66;5063742;28;20212;-68
2023/03/24 03:53:11;;;;;;;6.68;3.33;;;;;;;12.96;89.20;95379.53;5063811;28;20200;-69
2023/03/24 03:55:37;;;;;;;9.07;4.40;;;;;;;12.98;88.87;95372.22;5063171;28;20220;-68
2023/03/24 03:58:05;;;;;;;13.60;5.63;;;;;;;13.01;88.99;95379.72;5063637;28;20707;-67
2023/03/24 04:00:32;;;;;;;9.45;4.40;;;;;;;12.95;89.06;95372.63;5063850;28;20208;-67
2023/03/24 04:03:16;;;;;;;5.43;3.05;;;;;;;13.09;88.60;95368.88;5063609;28;20205;-67
2023/03/24 04:05:47;;;;;;;6.20;3.67;;;;;;;13.02;88.42;95372.59;5062687;28;20224;-69
2023/03/24 04:08:20;;;;;;;6.07;3.40;;;;;;;13.05;89.43;95374.84;5062951;28;20214;-68
2023/03/24 04:11:04;;;;;;;6.10;2.95;;;;;;;13.04;90.32;95378.50;5063464;28;20234;-69
2023/03/24 04:13:44;;;;;;;5.38;3.25;;;;;;;12.99;90.19;95386.25;5063344;28;20258;-67
2023/03/24 04:16:19;;;;;;;6.33;3.70;;;;;;;12.98;89.71;95377.50;5063283;28;20215;-67
2023/03/24 04:19:18;;;;;;;9.55;3.05;;;;;;;13.01;89.51;95378.94;5063566;28;20204;-68
2023/03/24 04:21:53;;;;;;;5.40;3.35;;;;;;;12.99;88.61;95378.31;5059212;28;20229;-68
2023/03/24 04:24:33;;;;;;;8.35;2.72;;;;;;;13.10;88.43;95382.94;5062087;28;20200;-69
2023/03/24 04:27:10;;;;;;;9.77;3.90;;;;;;;13.08;87.96;95379.69;5063265;28;20228;-69
2023/03/24 04:29:45;;;;;;;9.75;4.25;;;;;;;13.25;86.49;95378.97;5063090;28;20200;-69
2023/03/24 04:32:19;;;;;;;7.68;3.97;;;;;;;13.39;85.58;95370.72;5063116;28;20227;-69
2023/03/24 04:34:53;;;;;;;7.38;3.33;;;;;;;13.54;84.79;95373.88;5062262;28;20665;-69
2023/03/24 04:37:23;;;;;;;7.18;3.33;;;;;;;13.63;84.08;95377.88;5063193;28;20197;-67
2023/03/24 04:39:52;;;;;;;4.82;2.70;;;;;;;13.70;84.55;95372.53;5062904;28;20200;-66
2023/03/24 04:42:24;;;;;;;4.32;2.58;;;;;;;13.68;84.12;95374.56;5062945;28;20239;-69
2023/03/24 04:44:53;;;;;;;4.65;2.50;;;;;;;13.66;86.06;95371.34;5061953;28;20205;-68
2023/03/24 04:47:22;;;;;;;5.50;2.85;;;;;;;13.70;86.62;95377.81;5062539;28;20235;-68
2023/03/24 04:49:49;;;;;;;4.65;2.72;;;;;;;13.55;86.65;95367.53;5062403;28;20258;-68
2023/03/24 04:52:16;;;;;;;5.55;2.70;;;;;;;13.68;86.26;95369.28;5062853;28;20271;-68
2023/03/24 04:54:42;;;;;;;4.75;2.55;;;;;;;13.81;84.28;95367.34;5062212;28;20212;-68
2023/03/24 04:57:09;;;;;;;6.75;2.65;;;;;;;13.75;87.67;95365.53;5062723;28;20223;-68
2023/03/24 04:59:35;;;;;;;4.78;2.85;;;;;;;13.67;88.57;95365.00;5062379;28;20208;-68
2023/03/24 05:02:04;;;;;;;4.13;2.47;;;;;;;13.71;89.62;95345.81;5062461;28;20237;-66
2023/03/24 05:04:31;;;;;;;4.40;2.87;;;;;;;13.64;91.22;95315.94;5061303;28;20251;-69
2023/03/24 05:06:57;;;;;;;3.78;2.40;;;;;;;13.69;92.24;95280.88;5062205;28;21028;-69
2023/03/24 05:09:25;;;;;;;5.47;2.83;;;;;;;13.51;93.49;95337.22;5062894;28;20212;-69
2023/03/24 05:11:51;;;;;;;5.45;2.65;;;;;;;13.46;94.42;95331.78;5062405;28;20785;-67
2023/03/24 05:14:18;;;;;;;4.22;2.45;;;;;;;13.41;94.86;95342.19;5061673;28;20204;-69
2023/03/24 05:16:45;;;;;;;4.72;2.58;;;;;;;13.49;93.57;95333.19;5062847;28;20212;-68
2023/03/24 05:19:13;;;;;;;4.47;2.92;;;;;;;13.68;93.67;95340.16;5062366;28;20201;-66
2023/03/24 05:21:39;;;;;;;5.68;2.55;;;;;;;13.53;93.21;95339.66;5062084;28;20235;-67
2023/03/24 05:24:06;;;;;;;5.80;2.90;;;;;;;13.57;93.76;95344.31;5061975;28;20204;-68
2023/03/24 05:26:32;;;;;;;4.63;2.55;;;;;;;13.57;94.05;95341.66;5062272;28;20231;-66
2023/03/24 05:28:59;;;;;;;5.25;2.80;;;;;;;13.45;95.36;95343.41;5062166;28;20201;-69
2023/03/24 05:31:26;;;;;;;5.43;2.65;;;;;;;13.42;96.73;95349.13;5062348;28;20226;-67
2023/03/24 05:33:52;;;;;;;8.43;2.92;;;;;;;13.39;98.27;95354.03;5061639;28;21346;-69
2023/03/24 05:36:20;;;;;;;7.38;2.70;;;;;;;13.34;98.64;95361.81;5062317;28;21238;-67
2023/03/24 05:38:47;;;;;;;7.22;2.97;;;;;;;13.12;98.76;95357.06;5062108;28;20205;-70
2023/03/24 05:41:13;;;;;;;7.13;3.55;;;;;;;13.18;98.66;95366.81;5062003;28;20231;-67
2023/03/24 05:43:40;;;;;;;8.15;4.15;;;;;;;13.14;99.60;95368.28;5061658;28;20209;-69
2023/03/24 05:46:07;;;;;;;9.20;4.22;;;;;;;13.25;98.62;95362.28;5062270;28;20231;-68
2023/03/24 05:48:33;;;;;;;7.90;3.42;;;;;;;13.22;99.61;95357.41;5062289;28;20220;-68
2023/03/24 05:51:00;;;;;;;7.03;4.10;;;;;;;13.19;99.58;95357.84;5061946;28;21159;-68
2023/03/24 05:53:27;;;;;;;5.78;3.53;;;;;;;13.25;99.58;95362.28;5062245;28;20587;-66
2023/03/24 05:55:57;;;;;;;5.20;2.92;;;;;;;13.16;99.86;95361.75;5061190;28;20556;-66
2023/03/24 05:58:24;;;;;;;8.05;3.33;;;;;;;13.21;99.02;95366.38;5062173;28;20211;-68
2023/03/24 06:00:50;;;;;;;7.25;4.10;;;;;;;13.27;98.56;95376.91;5062069;28;20224;-66
2023/03/24 06:03:17;;;;;;;6.47;4.00;;;;;;;13.20;99.95;95377.97;5061925;28;20212;-67
2023/03/24 06:05:44;;;;;;;5.70;3.50;;;;;;;13.23;99.27;95374.91;5061087;28;20200;-68
2023/03/24 06:08:11;;;;;;;13.70;4.50;;;;;;;13.23;98.34;95380.22;5062007;28;20221;-66
2023/03/24 06:10:39;;;;;;;7.18;3.72;;;;;;;13.36;97.18;95383.56;5061776;28;20209;-71
2023/03/24 06:13:07;;;;;;;9.15;4.10;;;;;;;13.19;99.07;95389.59;5061835;28;20205;-69
2023/03/24 06:15:34;;;;;;;7.28;3.70;;;;;;;13.25;98.29;95396.66;5060811;28;20261;-69
2023/03/24 06:18:00;;;;;;;8.18;3.88;;;;;;;13.24;96.47;95397.69;5059214;28;20205;-69
2023/03/24 06:20:28;;;;;;;7.53;4.03;;;;;;;13.28;96.38;95401.56;5055837;28;20232;-66
2023/03/24 06:22:57;;;;;;;6.63;3.90;;;;;;;13.23;97.54;95409.31;5055599;28;20212;-69
2023/03/24 06:25:26;;;;;;;11.18;3.80;;;;;;;13.28;97.03;95404.19;5055304;28;20258;-69
2023/03/24 06:27:54;;;;;;;8.10;3.55;;;;;;;13.36;97.42;95402.09;5055760;28;20313;-69
2023/03/24 06:30:20;;;;;;;5.68;3.35;;;;;;;13.36;95.26;95406.59;5056700;28;20672;-65
2023/03/24 06:32:49;;;;;;;6.90;3.13;;;;;;;13.36;94.49;95414.53;5059452;28;20228;-67
2023/03/24 06:35:16;;;;;;;6.43;3.45;;;;;;;13.47;94.13;95412.78;5058726;28;20291;-70
2023/03/24 06:37:43;;;;;;;7.00;3.47;;;;;;;13.48;94.32;95414.44;5059332;28;20204;-65
2023/03/24 06:40:13;;;;;;;5.63;2.90;;;;;;;13.61;93.87;95413.53;5059885;28;20695;-70
2023/03/24 06:42:40;;;;;;;5.33;2.80;;;;;;;13.54;93.97;95418.88;5059211;28;20229;-65
2023/03/24 06:45:09;;;;;;;5.55;3.10;;;;;;;13.58;93.85;95425.34;5058735;28;20204;-69
2023/03/24 06:47:36;;;;;;;7.07;3.17;;;;;;;13.66;93.40;95419.78;5058942;28;20220;-66
2023/03/24 06:50:05;;;;;;;5.23;3.07;;;;;;;13.63;96.06;95420.22;5058981;28;20213;-66
2023/03/24 06:52:32;;;;;;;4.10;2.67;;;;;;;13.54;95.18;95420.69;5058932;28;20229;-69
2023/03/24 06:54:58;;;;;;;5.57;2.70;;;;;;;13.50;94.69;95424.78;5058172;28;20700;-68
2023/03/24 06:57:26;;;;;;;4.55;2.40;;;;;;;13.62;93.95;95420.41;5059730;28;20212;-69
2023/03/24 06:59:53;;;;;;;3.92;2.35;;;;;;;13.70;94.57;95428.91;5058891;28;20287;-69
2023/03/24 07:02:21;;;;;;;4.80;2.58;;;;;;;13.74;94.74;95438.06;5058427;28;20229;-70
2023/03/24 07:04:49;;;;;;;3.83;2.40;;;;;;;13.64;95.85;95442.22;5057636;28;20652;-70
2023/03/24 07:07:16;;;;;;;3.85;2.42;;;;;;;13.61;96.08;95443.44;5058922;28;20224;-69
2023/03/24 07:09:43;;;;;;;4.57;2.20;;;;;;;13.57;96.83;95450.19;5058605;28;20204;-66
2023/03/24 07:12:10;;;;;;;4.10;2.03;;;;;;;13.61;95.19;95438.16;5058961;28;20278;-69
2023/03/24 07:14:37;;;;;;;3.13;2.50;;;;;;;13.66;96.21;95440.97;5057907;28;20320;-68
2023/03/24 07:17:03;;;;;;;3.57;2.40;;;;;;;13.68;96.12;95435.44;5058232;28;20231;-69
2023/03/24 07:19:32;;;;;;;5.90;2.67;;;;;;;13.76;95.98;95446.59;5058790;28;20227;-69
2023/03/24 07:21:58;;;;;;;4.57;2.70;;;;;;;13.75;96.16;95434.38;5058613;28;20252;-68
2023/03/24 07:24:25;;;;;;;3.97;2.58;;;;;;;13.72;96.72;95442.78;5057719;28;20213;-68
2023/03/24 07:26:51;;;;;;;4.97;2.88;;;;;;;13.75;96.83;95450.28;5058762;28;21107;-66
2023/03/24 07:29:18;;;;;;;7.63;2.88;;;;;;;13.76;97.24;95448.41;5058481;28;20588;-68
2023/03/24 07:31:47;;;;;;;5.80;2.67;;;;;;;13.81;98.20;95454.72;5057852;28;20606;-68
2023/03/24 07:34:14;;;;;;;3.47;2.03;;;;;;;13.69;98.14;95445.03;5057788;28;20289;-66
2023/03/24 07:36:42;;;;;;;5.22;2.55;;;;;;;13.83;99.59;95450.00;5058271;28;20205;-66
2023/03/24 07:39:09;;;;;;;4.88;2.92;;;;;;;13.85;100.00;95455.91;5058505;28;20522;-68
2023/03/24 07:41:36;;;;;;;10.10;2.90;;;;;;;13.76;100.00;95457.19;5057544;28;20224;-67
2023/03/24 07:44:02;;;;;;;7.00;2.70;;;;;;;13.85;100.00;95461.19;5056679;28;20226;-68
2023/03/24 07:46:29;;;;;;;5.32;2.85;;;;;;;13.97;100.00;95463.97;5057257;28;20231;-69
2023/03/24 07:48:56;;;;;;;9.38;3.00;;;;;;;14.04;100.00;95468.19;5058207;28;20209;-70
2023/03/24 07:51:22;;;;;;;5.10;2.92;;;;;;;13.82;100.00;95466.91;5057987;28;20231;-68
2023/03/24 07:53:50;;;;;;;5.10;3.08;;;;;;;14.00;100.00;95469.63;5057426;28;20212;-69
2023/03/24 07:56:16;;;;;;;6.32;3.20;;;;;;;13.99;100.00;95475.97;5057818;28;20204;-68
2023/03/24 07:58:43;;;;;;;5.28;3.08;;;;;;;13.96;100.00;95476.38;5057609;28;20200;-69
2023/03/24 08:01:10;;;;;;;5.13;3.10;;;;;;;14.05;100.00;95480.38;5057724;28;20237;-69
2023/03/24 08:03:36;;;;;;;6.40;3.38;;;;;;;14.02;100.00;95478.97;5058879;28;20206;-66
2023/03/24 08:06:03;;;;;;;5.05;3.00;;;;;;;13.98;100.00;95482.28;5057357;28;20680;-68
2023/03/24 08:08:30;;;;;;;7.05;3.50;;;;;;;13.89;100.00;95486.22;5058310;28;20236;-68
2023/03/24 08:10:58;;;;;;;6.60;3.28;;;;;;;13.88;100.00;95489.88;5057457;28;20220;-68
2023/03/24 08:13:25;;;;;;;5.05;2.83;;;;;;;13.93;100.00;95483.97;5057187;28;20192;-68
2023/03/24 08:15:52;;;;;;;5.30;2.88;;;;;;;13.95;100.00;95498.63;5056987;28;20204;-68
2023/03/24 08:18:19;;;;;;;6.70;3.47;;;;;;;14.07;100.00;95497.69;5057120;28;20228;-68
2023/03/24 08:20:46;;;;;;;11.50;3.33;;;;;;;13.97;100.00;95501.84;5057072;28;20569;-68
2023/03/24 08:23:13;;;;;;;9.73;3.72;;;;;;;13.88;100.00;95508.44;5056976;28;20227;-68
2023/03/24 08:25:39;;;;;;;8.25;3.85;;;;;;;13.81;100.00;95512.97;5056333;28;20207;-68
2023/03/24 08:28:07;;;;;;;10.50;3.80;;;;;;;14.06;100.00;95511.97;5056757;28;20224;-68
2023/03/24 08:30:33;;;;;;;21.27;7.53;;;;;;;14.13;100.00;95519.91;5057264;28;20205;-68
2023/03/24 08:33:02;;;;;;;12.82;4.30;;;;;;;14.09;100.00;95508.91;5056628;28;20702;-68
2023/03/24 08:35:31;;;;;;;8.20;4.05;;;;;;;14.06;100.00;95519.09;5056096;28;20230;-68
2023/03/24 08:37:58;;;;;;;7.18;3.70;;;;;;;13.95;100.00;95519.81;5057061;28;20224;-68
2023/03/24 08:40:25;;;;;;;7.78;3.80;;;;;;;14.02;100.00;95517.91;5057123;28;20254;-67
2023/03/24 08:42:54;;;;;;;7.30;3.33;;;;;;;13.97;100.00;95522.22;5056438;28;20224;-68
2023/03/24 08:45:26;;;;;;;7.88;3.67;;;;;;;14.09;100.00;95521.34;5056247;28;20208;-68
2023/03/24 08:47:53;;;;;;;13.25;3.42;;;;;;;13.97;100.00;95528.34;5056903;28;20224;-68
2023/03/24 08:50:22;;;;;;;6.63;2.97;;;;;;;13.90;100.00;95527.59;5056918;28;20204;-68
2023/03/24 08:52:49;;;;;;;8.25;4.60;;;;;;;13.97;100.00;95533.63;5056202;28;20251;-68
2023/03/24 08:55:16;;;;;;;8.57;3.85;;;;;;;13.85;100.00;95543.28;5056292;28;20489;-68
2023/03/24 08:57:43;;;;;;;9.52;4.18;;;;;;;13.97;100.00;95538.13;5056426;28;20296;-68
2023/03/24 09:00:14;;;;;;;8.55;3.78;;;;;;;13.99;100.00;95545.63;5056751;28;20585;-68
2023/03/24 09:02:41;;;;;;;7.22;3.42;;;;;;;13.98;100.00;95535.25;5056269;28;20224;-68
2023/03/24 09:05:08;;;;;;;5.85;3.50;;;;;;;13.97;100.00;95541.56;5056604;28;20281;-68
2023/03/24 09:07:35;;;;;;;10.02;3.25;;;;;;;13.64;100.00;95540.16;5056094;28;20227;-67
2023/03/24 09:10:02;;;;;;;8.15;3.08;;;;;;;13.68;100.00;95536.88;5056495;28;20556;-67
2023/03/24 09:12:28;;;;;;;3.85;2.60;;;;;;;13.58;100.00;95531.25;5056305;28;20624;-68
2023/03/24 09:14:55;;;;;;;5.22;2.92;;;;;;;13.74;100.00;95535.22;5055430;28;20204;-68
2023/03/24 09:17:21;;;;;;;5.10;3.20;;;;;;;13.71;100.00;95538.28;5055969;28;20204;-68
2023/03/24 09:19:49;;;;;;;9.48;3.45;;;;;;;13.77;100.00;95543.56;5056620;28;20201;-68
2023/03/24 09:22:16;;;;;;;5.95;3.10;;;;;;;13.73;100.00;95542.34;5056573;28;20237;-67
2023/03/24 09:24:43;;;;;;;6.47;3.42;;;;;;;13.70;100.00;95545.41;5055348;28;20220;-66
2023/03/24 09:27:09;;;;;;;4.95;2.63;;;;;;;13.66;100.00;95530.97;5056419;28;20201;-68
2023/03/24 09:29:36;;;;;;;5.40;2.90;;;;;;;13.73;100.00;95536.25;5056750;28;20638;-68
2023/03/24 09:32:02;;;;;;;6.87;3.70;;;;;;;13.79;100.00;95541.50;5056136;28;20220;-67
2023/03/24 09:34:29;;;;;;;7.60;2.80;;;;;;;13.79;100.00;95544.13;5055275;28;20205;-66
2023/03/24 09:36:57;;;;;;;4.43;2.42;;;;;;;13.91;100.00;95545.06;5056525;28;20591;-67
2023/03/24 09:39:23;;;;;;;4.55;2.60;;;;;;;13.81;100.00;95546.56;5056239;28;20224;-68
2023/03/24 09:41:50;;;;;;;6.40;2.83;;;;;;;13.77;100.00;95525.03;5055643;28;20228;-66
2023/03/24 09:44:25;;;;;;;4.47;3.13;;;;;;;13.78;100.00;95518.69;5053449;28;20272;-68
2023/03/24 09:46:56;;;;;;;9.13;2.03;;;;;;;13.82;100.00;95525.16;5053849;28;20211;-67
2023/03/24 09:49:26;;;;;;;4.53;2.85;;;;;;;13.81;100.00;95517.44;5054372;28;20199;-66
2023/03/24 09:51:56;;;;;;;3.88;2.08;;;;;;;13.72;100.00;95505.47;5054421;28;20228;-66
2023/03/24 09:54:30;;;;;;;6.22;2.50;;;;;;;13.74;100.00;95498.16;5053995;28;21200;-68
2023/03/24 09:56:58;;;;;;;8.23;2.63;;;;;;;13.74;100.00;95463.72;5054329;28;20211;-67
2023/03/24 09:59:32;;;;;;;5.65;2.28;;;;;;;13.73;100.00;95439.06;5052493;28;20212;-69
2023/03/24 10:01:59;;;;;;;5.50;2.67;;;;;;;13.66;100.00;95434.88;5053612;28;20242;-67
2023/03/24 10:04:30;;;;;;;3.25;2.00;;;;;;;13.69;100.00;95435.22;5053316;28;20772;-66
2023/03/24 10:07:03;;;;;;;3.95;2.28;;;;;;;13.67;100.00;95426.72;5057187;28;20741;-66
2023/03/24 10:09:34;;;;;;;6.40;2.28;;;;;;;13.76;100.00;95449.25;5058585;28;20200;-67
2023/03/24 10:12:17;;;;;;;4.13;2.03;;;;;;;13.88;100.00;95481.94;5057983;28;21051;-70
2023/03/24 10:14:55;;;;;;;5.25;2.17;;;;;;;13.89;100.00;95514.56;5057238;28;20216;-67
2023/03/24 10:17:29;;;;;;;3.35;2.10;;;;;;;13.97;100.00;95554.81;5058341;28;20212;-69
2023/03/24 10:20:01;;;;;;;4.20;2.65;;;;;;;13.96;100.00;95560.34;5058280;28;20203;-67
2023/03/24 10:22:34;;;;;;;6.03;2.83;;;;;;;13.99;100.00;95539.53;5058362;28;20236;-67
2023/03/24 10:25:13;;;;;;;4.38;2.72;;;;;;;14.07;100.00;95537.41;5058515;28;20204;-68
2023/03/24 10:27:46;;;;;;;7.50;2.90;;;;;;;14.18;100.00;95525.38;5058644;28;20228;-69
2023/03/24 10:30:17;;;;;;;5.00;2.00;;;;;;;14.17;100.00;95523.75;5058837;28;20208;-66
2023/03/24 10:32:44;;;;;;;5.72;2.65;;;;;;;14.22;100.00;95537.16;5059835;28;20228;-66
2023/03/24 10:35:18;;;;;;;3.72;2.30;;;;;;;14.46;100.00;95531.84;5052638;28;20200;-67
2023/03/24 10:37:45;;;;;;;8.07;2.85;;;;;;;14.57;100.00;95525.03;5057884;28;20204;-69
2023/03/24 10:40:16;;;;;;;3.88;2.33;;;;;;;14.63;100.00;95523.09;5056792;28;20205;-67
2023/03/24 10:42:45;;;;;;;2.38;1.50;;;;;;;14.62;100.00;95528.63;5057264;28;20225;-68
2023/03/24 10:45:14;;;;;;;7.03;2.78;;;;;;;14.73;100.00;95514.66;5057073;28;20205;-67
2023/03/24 10:47:42;;;;;;;4.20;2.10;;;;;;;14.79;100.00;95519.06;5058022;28;20353;-69
2023/03/24 10:50:09;;;;;;;7.93;3.10;;;;;;;15.14;100.00;95514.81;5059023;28;20223;-66
2023/03/24 10:52:39;;;;;;;6.00;3.08;;;;;;;15.18;98.41;95505.38;5058687;28;20220;-70
2023/03/24 10:55:06;;;;;;;4.70;1.98;;;;;;;15.16;95.89;95507.44;5058057;28;20228;-69
2023/03/24 10:57:35;;;;;;;2.35;1.88;;;;;;;15.42;94.44;95515.94;5059439;28;20569;-66
2023/03/24 11:00:09;;;;;;;4.28;1.58;;;;;;;15.55;92.18;95513.09;5058699;28;20208;-67
2023/03/24 11:02:37;;;;;;;3.30;1.85;;;;;;;15.71;91.85;95501.88;5058532;28;20385;-69
2023/03/24 11:05:15;;;;;;;3.40;1.63;;;;;;;15.88;89.44;95515.09;5058067;28;20701;-70
2023/03/24 11:07:44;;;;;;;4.90;2.00;;;;;;;15.70;90.66;95509.00;5058640;28;20433;-67
2023/03/24 11:10:16;;;;;;;4.40;1.50;;;;;;;15.66;89.85;95507.84;5058900;28;20215;-67
2023/03/24 11:13:01;;;;;;;2.33;1.55;;;;;;;15.71;89.54;95499.22;5058659;28;20224;-68
2023/03/24 11:15:29;;;;;;;2.13;1.40;;;;;;;15.51;88.28;95514.59;5057624;28;20244;-68
2023/03/24 11:17:57;;;;;;;1.95;1.35;;;;;;;15.38;88.06;95496.19;5058073;28;20741;-68
2023/03/24 11:20:31;;;;;;;1.98;1.70;;;;;;;15.45;88.70;95515.47;5058810;28;20204;-68
2023/03/24 11:23:03;;;;;;;2.85;1.50;;;;;;;15.35;88.44;95529.28;5058115;28;20240;-69
2023/03/24 11:25:31;;;;;;;2.25;1.20;;;;;;;15.39;89.33;95519.03;5058520;28;20219;-66
2023/03/24 11:28:01;;;;;;;2.33;1.45;;;;;;;15.36;88.29;95530.09;5058328;28;20227;-66
2023/03/24 11:30:32;;;;;;;1.52;1.08;;;;;;;15.22;86.94;95525.97;5057970;28;20205;-67
2023/03/24 11:32:59;;;;;;;2.65;1.35;;;;;;;15.24;86.58;95517.81;5058064;28;20200;-68
2023/03/24 11:35:27;;;;;;;0.98;0.90;;;;;;;15.27;86.74;95512.84;5057392;28;20204;-68
2023/03/24 11:37:54;;;;;;;4.97;1.73;;;;;;;15.29;87.80;95505.47;5058475;28;20197;-67
2023/03/24 11:40:25;;;;;;;1.80;1.20;;;;;;;15.55;87.77;95495.31;5057500;28;20331;-66